Flight Track Log - Related Links

Times and Time Zones

All times are in EDT time to prevent confusion due to time zone crossing. See the SWA2383 flight status page for this flight to view local times or setup timezone preferences in your user account.

Time Position Orientation Groundspeed Altitude Reporting Facility
EDT Latitude Longitude Course Direction KTS MPH feet Rate Location/Type
08:07PM 33.6036 -117.8922 189° South 154 177 3,300  Level Los Angeles Center
08:08PM 33.5453 -117.9067 192° South 204 235 5,500 3,024 Climbing Los Angeles Center
08:09PM 33.4878 -117.9528 214° Southwest 243 280 9,500 3,122 Climbing Los Angeles Center
08:10PM 33.4167 -118.0122 215° Southwest 300 345 11,900 3,290 Climbing Los Angeles Center
08:11PM 33.4562 -118.2443 235° Southwest  Level FlightAware Approximate
08:11PM 33.3356 -118.1194 228° Southwest 377 434 16,300  Level Los Angeles Center
08:12PM 33.3808 -118.2258 297° West 375 432 19,800 3,415 Climbing Los Angeles Center
08:13PM 33.4506 -118.3203 312° West 377 434 23,300 2,952 Climbing Los Angeles Center
08:14PM 33.5236 -118.4183 312° West 388 447 25,900 2,439 Climbing Los Angeles Center
08:15PM 33.6003 -118.5242 311° West 413 475 28,300 2,341 Climbing Los Angeles Center
08:16PM 33.6797 -118.6328 311° West 425 489 30,700 2,439 Climbing Los Angeles Center
08:17PM 33.7589 -118.7386 312° West 423 487 33,300 2,293 Climbing Los Angeles Center
08:18PM 33.8353 -118.8419 312° West 415 478 35,400 1,317 Climbing Los Angeles Center
08:19PM 33.9128 -118.9483 311° West 421 484 36,000 293 Climbing Los Angeles Center
08:20PM 33.9889 -119.0533 311° West 419 482 36,000  Level Los Angeles Center
08:21PM 34.0797 -119.1789 311° West 414 476 36,000  Level Los Angeles Center
08:22PM 34.1561 -119.2831 312° West 414 476 36,000  Level Los Angeles Center
08:23PM 34.2311 -119.3875 311° West 412 474 36,000  Level Los Angeles Center
08:24PM 34.3064 -119.4917 311° West 412 474 36,000  Level Los Angeles Center
08:25PM 34.3817 -119.5964 311° West 412 474 36,000  Level Los Angeles Center
08:26PM 34.4561 -119.7014 311° West 413 475 36,000  Level Los Angeles Center
08:27PM 34.5358 -119.7997 315° West 411 473 36,000  Level Los Angeles Center
08:28PM 34.6372 -119.8758 328° Northwest 419 482 36,000  Level Los Angeles Center
08:29PM 34.7503 -119.9717 325° Northwest 412 474 36,000  Level Los Angeles Center
08:30PM 34.8464 -120.0506 326° Northwest 414 476 36,000  Level Los Angeles Center
08:31PM 34.9428 -120.1303 326° Northwest 418 481 36,000  Level Los Angeles Center
08:32PM 35.0389 -120.2092 326° Northwest 420 483 36,000  Level Los Angeles Center
08:33PM 35.1325 -120.2881 325° Northwest 413 475 36,000  Level Los Angeles Center
08:34PM 35.2258 -120.3675 325° Northwest 415 478 36,000  Level Los Angeles Center
08:35PM 35.3203 -120.4472 325° Northwest 422 486 36,000  Level Los Angeles Center
08:36PM 35.4347 -120.5461 325° Northwest 425 489 36,000  Level Los Angeles Center
08:37PM 35.4639 -120.5703 326° Northwest 428 493 36,000  Level Oakland Center
08:38PM 35.5594 -120.6497 326° Northwest 414 476 36,000  Level Oakland Center
08:39PM 35.6547 -120.7303 326° Northwest 412 474 36,000 -148 Level Oakland Center
08:40PM 35.7506 -120.8114 326° Northwest 417 480 35,700 -1,426 Descending Oakland Center
08:41PM 35.8439 -120.8925 325° Northwest 409 471 33,100 -2,311 Descending Oakland Center
08:42PM 35.9381 -120.9708 326° Northwest 406 467 31,000 -2,016 Descending Oakland Center
08:43PM 36.0264 -121.0486 325° Northwest 391 450 29,000 -1,475 Descending Oakland Center
08:44PM 36.1142 -121.1219 326° Northwest 382 440 28,000 -1,082 Descending Oakland Center
08:45PM 36.2019 -121.1972 325° Northwest 386 444 26,800 -1,770 Descending Oakland Center
08:46PM 36.2889 -121.2719 325° Northwest 380 437 24,400 -2,410 Descending Oakland Center
08:47PM 36.3739 -121.3467 325° Northwest 376 433 21,900 -2,311 Descending Oakland Center
08:48PM 36.4572 -121.4208 324° Northwest 368 423 19,700 -2,262 Descending Oakland Center
08:49PM 36.5367 -121.4894 325° Northwest 351 404 17,300 -2,311 Descending Oakland Center
08:50PM 36.6506 -121.5069 353° North 342 394 15,000 -2,213 Descending Oakland Center
08:51PM 36.7383 -121.5211 353° North 321 369 12,800 -2,066 Descending Oakland Center
08:52PM 36.8239 -121.5497 345° North 319 367 10,800 -1,623 Descending Oakland Center
08:53PM 36.8975 -121.5872 338° Northwest 311 358 9,500 -1,328 Descending Oakland Center
08:54PM 36.9722 -121.6219 340° North 292 336 8,100 -1,426 Descending Oakland Center
08:55PM 37.0450 -121.6556 340° North 282 325 6,600 -1,328 Descending Oakland Center
08:56PM 37.1158 -121.6889 339° North 275 316 5,400 -984 Descending Oakland Center
08:57PM 37.1781 -121.7222 337° Northwest 260 299 4,600 -1,180 Descending Oakland Center
08:58PM 37.2347 -121.7911 316° Northwest 243 280 3,000 -1,279 Descending Oakland Center
08:59PM 37.2767 -121.8347 320° Northwest 217 250 2,000 -885 Descending Oakland Center
09:00PM 37.3089 -121.8717 318° Northwest 183 211 1,200 -689 Descending Oakland Center
09:01PM 37.3358 -121.9003 320° Northwest 153 176 600 -590 Descending Oakland Center
09:04PM 37.3500 -121.9167 North  Level FlightAware Approximate
09:11PM 37.3627 -121.9291 North  Level Estimated

Login

Don't have an account? Register now (free) for customized features, flight alerts, and more!